createdAt,value
2017-10-25T00:00:46.914Z,93.60
2017-10-25T00:03:14.462Z,93.50
2017-10-25T00:05:41.976Z,93.60
2017-10-25T00:08:09.510Z,93.60
2017-10-25T00:10:37.060Z,93.60
2017-10-25T00:13:04.600Z,93.60
2017-10-25T00:15:32.131Z,93.60
2017-10-25T00:17:59.683Z,93.50
2017-10-25T00:20:27.210Z,93.60
2017-10-25T00:22:55.508Z,93.80
2017-10-25T00:25:23.067Z,93.70
2017-10-25T00:27:50.600Z,93.60
2017-10-25T00:30:18.129Z,93.80
2017-10-25T00:32:45.670Z,93.70
2017-10-25T00:35:13.205Z,93.70
2017-10-25T00:37:40.734Z,93.70
2017-10-25T00:40:08.280Z,93.70
2017-10-25T00:42:36.633Z,93.80
2017-10-25T00:45:04.926Z,94.10
2017-10-25T00:47:32.479Z,93.90
2017-10-25T00:50:00.022Z,93.80
2017-10-25T00:52:27.543Z,93.70
2017-10-25T00:54:55.867Z,93.80
2017-10-25T00:57:23.395Z,93.60
2017-10-25T00:59:50.934Z,93.60
2017-10-25T01:02:18.484Z,93.60
2017-10-25T01:04:46.010Z,93.60
2017-10-25T01:07:13.531Z,93.70
2017-10-25T01:09:41.114Z,93.50
2017-10-25T01:12:08.651Z,93.50
2017-10-25T01:14:36.186Z,93.70
2017-10-25T01:17:03.734Z,93.50
2017-10-25T01:19:31.263Z,93.60
2017-10-25T01:21:58.782Z,93.50
2017-10-25T01:24:27.096Z,93.60
2017-10-25T01:26:54.635Z,93.60
2017-10-25T01:29:22.159Z,93.50
2017-10-25T01:31:49.702Z,93.50
2017-10-25T01:34:19.630Z,93.60
2017-10-25T01:36:49.531Z,93.40
2017-10-25T01:39:19.112Z,93.50
2017-10-25T01:41:48.912Z,93.70
2017-10-25T01:44:16.458Z,93.70
2017-10-25T01:46:43.974Z,93.50
2017-10-25T01:49:11.514Z,93.60
2017-10-25T01:51:40.227Z,93.70
2017-10-25T01:54:07.799Z,93.70
2017-10-25T01:56:36.139Z,93.70
2017-10-25T01:59:03.693Z,93.50
2017-10-25T02:01:31.262Z,93.60
2017-10-25T02:03:59.637Z,93.60
2017-10-25T02:06:27.174Z,93.40
2017-10-25T02:08:55.466Z,93.80
2017-10-25T02:11:23.032Z,93.50
2017-10-25T02:13:50.808Z,93.60
2017-10-25T02:16:18.352Z,93.40
2017-10-25T02:18:45.985Z,93.50
2017-10-25T02:21:13.532Z,93.60
2017-10-25T02:23:41.046Z,93.60
2017-10-25T02:26:08.768Z,93.50
2017-10-25T02:28:37.070Z,93.70
2017-10-25T02:31:04.600Z,93.50
2017-10-25T02:33:32.157Z,93.70
2017-10-25T02:35:59.678Z,93.50
2017-10-25T02:38:27.211Z,93.30
2017-10-25T02:40:55.517Z,93.60
2017-10-25T02:43:23.154Z,93.40
2017-10-25T02:45:50.690Z,93.60
2017-10-25T02:48:18.248Z,93.60
2017-10-25T02:50:45.812Z,93.30
2017-10-25T02:53:13.373Z,93.40
2017-10-25T02:55:40.942Z,93.30
2017-10-25T02:58:09.239Z,93.70
2017-10-25T03:00:36.780Z,93.50
2017-10-25T03:03:04.329Z,93.40
2017-10-25T03:05:31.859Z,93.50
2017-10-25T03:07:59.380Z,93.50
2017-10-25T03:10:27.714Z,93.60
2017-10-25T03:12:55.238Z,93.60
2017-10-25T03:15:22.758Z,93.60
2017-10-25T03:17:50.311Z,93.50
2017-10-25T03:20:17.851Z,93.80
2017-10-25T03:22:45.384Z,93.50
2017-10-25T03:25:12.961Z,93.30
2017-10-25T03:27:40.492Z,93.50
2017-10-25T03:30:08.016Z,93.40
2017-10-25T03:32:35.572Z,93.40
2017-10-25T03:35:03.155Z,93.60
2017-10-25T03:37:30.688Z,93.40
2017-10-25T03:39:58.230Z,93.50
2017-10-25T03:42:25.756Z,93.70
2017-10-25T03:44:53.280Z,93.60
2017-10-25T03:47:20.843Z,93.60
2017-10-25T03:49:48.370Z,93.60
2017-10-25T03:52:15.906Z,93.80
2017-10-25T03:54:43.467Z,93.80
2017-10-25T03:57:11.004Z,93.60
2017-10-25T03:59:38.541Z,93.90
2017-10-25T04:02:06.104Z,93.60
2017-10-25T04:04:33.641Z,93.70
2017-10-25T04:07:01.178Z,93.70
2017-10-25T04:09:28.779Z,93.80
2017-10-25T04:11:56.385Z,93.70
2017-10-25T04:14:23.920Z,93.90
2017-10-25T04:16:51.749Z,93.80
2017-10-25T04:19:20.044Z,93.80
2017-10-25T04:21:47.571Z,93.80
2017-10-25T04:24:15.133Z,93.90
2017-10-25T04:26:42.671Z,93.80
2017-10-25T04:29:10.213Z,93.70
2017-10-25T04:31:37.779Z,93.70
2017-10-25T04:34:05.312Z,93.80
2017-10-25T04:36:32.843Z,93.80
2017-10-25T04:39:00.395Z,93.90
2017-10-25T04:41:27.954Z,93.80
2017-10-25T04:43:56.275Z,93.80
2017-10-25T04:46:23.814Z,93.90
2017-10-25T04:48:51.357Z,94.00
2017-10-25T04:51:18.897Z,93.80
2017-10-25T04:53:46.469Z,94.00
2017-10-25T04:56:16.253Z,94.10
2017-10-25T04:58:43.771Z,94.10
2017-10-25T05:01:12.088Z,94.10
2017-10-25T05:03:39.617Z,93.90
2017-10-25T05:06:07.141Z,94.40
2017-10-25T05:08:35.475Z,93.90
2017-10-25T05:11:03.763Z,94.00
2017-10-25T05:13:31.292Z,93.90
2017-10-25T05:15:59.620Z,93.90
2017-10-25T05:18:27.149Z,93.90
2017-10-25T05:20:54.691Z,93.90
2017-10-25T05:23:22.258Z,93.90
2017-10-25T05:25:49.782Z,93.90
2017-10-25T05:28:17.319Z,93.90
2017-10-25T05:30:44.867Z,93.90
2017-10-25T05:33:12.415Z,93.90
2017-10-25T05:35:39.951Z,94.00
2017-10-25T05:38:07.504Z,94.10
2017-10-25T05:40:35.046Z,93.90
2017-10-25T05:43:02.588Z,93.90
2017-10-25T05:45:30.154Z,94.00
2017-10-25T05:47:57.701Z,94.00
2017-10-25T05:50:25.237Z,94.10
2017-10-25T05:52:52.801Z,94.00
2017-10-25T05:55:20.341Z,94.30
2017-10-25T05:57:47.884Z,94.30
2017-10-25T06:00:15.442Z,94.20
2017-10-25T06:02:42.995Z,94.30
2017-10-25T06:05:11.308Z,94.60
2017-10-25T06:07:38.879Z,94.40
2017-10-25T06:10:06.412Z,94.70
2017-10-25T06:12:33.944Z,94.50
2017-10-25T06:15:01.504Z,94.60
2017-10-25T06:17:29.056Z,94.40
2017-10-25T06:19:56.595Z,94.40
2017-10-25T06:22:24.154Z,94.60
2017-10-25T06:24:51.688Z,94.30
2017-10-25T06:27:19.228Z,94.50
2017-10-25T06:29:46.775Z,94.40
2017-10-25T06:32:14.320Z,94.60
2017-10-25T06:34:41.856Z,94.40
2017-10-25T06:37:09.404Z,94.30
2017-10-25T06:39:36.941Z,94.30
2017-10-25T06:42:04.476Z,94.40
2017-10-25T06:44:32.049Z,94.40
2017-10-25T06:46:59.690Z,94.30
2017-10-25T06:49:27.222Z,94.50
2017-10-25T06:51:54.776Z,94.40
2017-10-25T06:54:22.314Z,94.20
2017-10-25T06:56:49.844Z,94.20
2017-10-25T06:59:17.409Z,94.20
2017-10-25T07:01:44.932Z,94.30
2017-10-25T07:04:12.468Z,94.30
2017-10-25T07:06:40.029Z,94.50
2017-10-25T07:09:16.647Z,94.40
2017-10-25T07:11:45.939Z,94.30
2017-10-25T07:14:13.663Z,94.30
2017-10-25T07:16:41.200Z,94.30
2017-10-25T07:19:08.768Z,94.10
2017-10-25T07:21:36.398Z,94.20
2017-10-25T07:24:03.985Z,94.20
2017-10-25T07:26:31.597Z,94.00
2017-10-25T07:28:59.193Z,94.10
2017-10-25T07:31:27.533Z,94.10
2017-10-25T07:33:55.873Z,94.20
2017-10-25T07:36:23.407Z,94.10
2017-10-25T07:38:50.944Z,94.00
2017-10-25T07:41:18.492Z,94.10
2017-10-25T07:43:46.020Z,94.00
2017-10-25T07:46:13.547Z,94.20
2017-10-25T07:48:42.117Z,94.10
2017-10-25T07:51:09.699Z,94.10
2017-10-25T07:53:37.273Z,94.20
2017-10-25T07:56:04.979Z,94.10
2017-10-25T07:58:32.519Z,93.90
2017-10-25T08:01:00.062Z,94.10
2017-10-25T08:03:27.832Z,93.90
2017-10-25T08:05:55.395Z,94.00
2017-10-25T08:08:22.929Z,93.60
2017-10-25T08:10:50.476Z,93.80
2017-10-25T08:13:18.000Z,94.00
2017-10-25T08:15:46.808Z,93.80
2017-10-25T08:18:14.681Z,93.70
2017-10-25T08:20:43.705Z,93.80
2017-10-25T08:23:13.639Z,93.80
2017-10-25T08:25:41.437Z,93.60
2017-10-25T08:28:08.973Z,93.70
2017-10-25T08:30:37.268Z,93.60
2017-10-25T08:33:04.829Z,93.50
2017-10-25T08:35:32.445Z,93.50
2017-10-25T08:37:59.910Z,93.40
2017-10-25T08:40:27.468Z,93.30
2017-10-25T08:42:57.314Z,93.20
2017-10-25T08:45:24.848Z,93.10
2017-10-25T08:47:53.171Z,92.90
2017-10-25T08:50:20.696Z,92.70
2017-10-25T08:52:48.232Z,92.60
2017-10-25T08:55:15.792Z,92.60
2017-10-25T08:57:43.319Z,92.40
2017-10-25T09:00:10.905Z,92.40
2017-10-25T09:02:38.552Z,92.40
2017-10-25T09:05:06.135Z,92.20
2017-10-25T09:07:33.715Z,91.90
2017-10-25T09:10:01.277Z,92.00
2017-10-25T09:12:30.425Z,91.90
2017-10-25T09:14:57.947Z,91.70
2017-10-25T09:17:26.267Z,91.60
2017-10-25T09:19:53.786Z,91.40
2017-10-25T09:22:21.321Z,91.30
2017-10-25T09:24:48.875Z,90.60
2017-10-25T09:27:16.404Z,90.60
2017-10-25T09:29:43.996Z,90.70
2017-10-25T09:32:11.563Z,90.40
2017-10-25T09:34:39.860Z,90.00
2017-10-25T09:37:07.387Z,90.10
2017-10-25T09:39:35.700Z,90.20
2017-10-25T09:42:03.238Z,90.00
2017-10-25T09:44:30.755Z,89.40
2017-10-25T09:46:58.305Z,89.80
2017-10-25T09:49:25.824Z,89.30
2017-10-25T09:51:53.347Z,89.50
2017-10-25T09:54:20.896Z,88.30
2017-10-25T09:56:49.184Z,88.60
2017-10-25T09:59:16.717Z,87.50
2017-10-25T10:01:45.032Z,86.80
2017-10-25T10:04:12.555Z,86.40
2017-10-25T10:06:40.081Z,85.20
2017-10-25T10:09:07.640Z,83.20
2017-10-25T10:11:35.166Z,82.50
2017-10-25T10:14:02.714Z,81.70
2017-10-25T10:16:30.267Z,79.10
2017-10-25T10:18:57.791Z,78.90
2017-10-25T10:21:26.085Z,81.10
2017-10-25T10:23:53.636Z,80.90
2017-10-25T10:26:21.161Z,80.50
2017-10-25T10:28:48.684Z,81.50
2017-10-25T10:31:17.009Z,81.90
2017-10-25T10:33:44.538Z,81.40
2017-10-25T10:36:12.083Z,79.60
2017-10-25T10:38:39.632Z,80.30
2017-10-25T10:41:07.155Z,80.50
2017-10-25T10:43:34.672Z,80.80
2017-10-25T10:46:02.220Z,81.00
2017-10-25T10:48:29.894Z,81.40
2017-10-25T10:50:57.647Z,80.20
2017-10-25T10:53:25.200Z,79.80
2017-10-25T10:55:52.733Z,78.00
2017-10-25T10:58:20.257Z,76.60
2017-10-25T11:00:47.815Z,76.50
2017-10-25T11:03:15.349Z,76.70
2017-10-25T11:05:42.886Z,77.70
2017-10-25T11:08:10.428Z,77.80
2017-10-25T11:10:37.963Z,77.00
2017-10-25T11:13:06.263Z,78.40
2017-10-25T11:15:33.820Z,77.90
2017-10-25T11:18:01.349Z,78.00
2017-10-25T11:20:28.871Z,78.20
2017-10-25T11:22:56.419Z,77.80
2017-10-25T11:25:23.955Z,77.90
2017-10-25T11:27:51.484Z,77.70
2017-10-25T11:30:19.801Z,75.70
2017-10-25T11:32:47.332Z,75.20
2017-10-25T11:35:14.868Z,74.60
2017-10-25T11:37:42.413Z,73.60
2017-10-25T11:40:09.941Z,72.50
2017-10-25T11:42:37.473Z,73.00
2017-10-25T11:45:05.784Z,72.90
2017-10-25T11:47:33.308Z,72.50
2017-10-25T11:50:00.828Z,72.40
2017-10-25T11:52:29.138Z,73.00
2017-10-25T11:54:56.654Z,72.60
2017-10-25T11:57:24.187Z,71.70
2017-10-25T11:59:51.730Z,71.10
2017-10-25T12:02:19.283Z,71.40
2017-10-25T12:04:46.817Z,71.50
2017-10-25T12:07:14.528Z,71.30
2017-10-25T12:09:42.153Z,70.80
2017-10-25T12:12:09.672Z,71.20
2017-10-25T12:14:37.228Z,70.50
2017-10-25T12:17:04.764Z,70.60
2017-10-25T12:19:32.283Z,71.10
2017-10-25T12:21:59.860Z,71.10
2017-10-25T12:24:27.810Z,70.70
2017-10-25T12:26:55.340Z,70.70
2017-10-25T12:29:22.892Z,71.60
2017-10-25T12:31:50.424Z,70.40
2017-10-25T12:34:17.956Z,70.60
2017-10-25T12:36:46.285Z,69.30
2017-10-25T12:39:13.813Z,68.90
2017-10-25T12:41:41.339Z,69.00
2017-10-25T12:44:08.896Z,68.90
2017-10-25T12:46:36.433Z,68.40
2017-10-25T12:49:03.963Z,67.00
2017-10-25T12:51:31.512Z,63.50
2017-10-25T12:53:59.052Z,62.50
2017-10-25T12:56:26.587Z,61.90
2017-10-25T12:58:54.130Z,61.80
2017-10-25T13:01:21.655Z,62.20
2017-10-25T13:03:49.951Z,61.20
2017-10-25T13:06:17.492Z,61.10
2017-10-25T13:08:45.026Z,61.70
2017-10-25T13:11:14.902Z,61.80
2017-10-25T13:13:47.585Z,62.50
2017-10-25T13:16:16.396Z,62.00
2017-10-25T13:18:44.823Z,61.90
2017-10-25T13:21:12.372Z,60.90
2017-10-25T13:23:39.937Z,61.20
2017-10-25T13:26:07.469Z,61.30
2017-10-25T13:28:35.111Z,61.10
2017-10-25T13:31:02.635Z,61.90
2017-10-25T13:33:30.934Z,62.00
2017-10-25T13:36:00.192Z,61.60
2017-10-25T13:38:27.719Z,62.60
2017-10-25T13:40:55.248Z,63.60
2017-10-25T13:43:22.821Z,63.50
2017-10-25T13:45:50.346Z,64.00
2017-10-25T13:48:17.863Z,63.70
2017-10-25T13:50:46.171Z,62.40
2017-10-25T13:53:13.692Z,61.90
2017-10-25T13:55:41.222Z,62.10
2017-10-25T13:58:09.576Z,63.30
2017-10-25T14:00:37.866Z,63.50
2017-10-25T14:03:05.383Z,63.00
2017-10-25T14:05:32.923Z,63.20
2017-10-25T14:08:00.524Z,63.00
2017-10-25T14:10:28.039Z,63.30
2017-10-25T14:12:55.597Z,63.40
2017-10-25T14:15:23.201Z,63.60
2017-10-25T14:17:50.711Z,63.30
2017-10-25T14:20:18.261Z,63.90
2017-10-25T14:22:45.785Z,63.40
2017-10-25T14:25:13.324Z,63.70
2017-10-25T14:27:52.779Z,63.70
2017-10-25T14:30:20.304Z,63.70
2017-10-25T14:32:50.220Z,65.60
2017-10-25T14:35:17.940Z,64.40
2017-10-25T14:37:45.918Z,64.30
2017-10-25T14:40:13.459Z,64.60
2017-10-25T14:42:41.315Z,65.40
2017-10-25T14:45:09.466Z,66.00
2017-10-25T14:47:37.365Z,66.30
2017-10-25T14:50:05.672Z,67.60
2017-10-25T14:52:33.196Z,67.10
2017-10-25T14:55:00.719Z,67.00
2017-10-25T14:57:29.040Z,67.30
2017-10-25T14:59:58.039Z,67.00
2017-10-25T15:02:25.567Z,67.00
2017-10-25T15:04:53.135Z,66.80
2017-10-25T15:07:21.430Z,66.80
2017-10-25T15:09:49.625Z,66.70
2017-10-25T15:12:17.197Z,66.90
2017-10-25T15:14:44.724Z,67.80
2017-10-25T15:17:12.929Z,67.60
2017-10-25T15:19:40.482Z,67.70
2017-10-25T15:22:08.011Z,68.00
2017-10-25T15:24:35.553Z,68.00
2017-10-25T15:27:03.541Z,68.00
2017-10-25T15:29:31.101Z,68.40
2017-10-25T15:31:59.456Z,69.60
2017-10-25T15:34:28.966Z,69.00
2017-10-25T15:36:56.513Z,69.60
2017-10-25T15:39:25.495Z,69.80
2017-10-25T15:41:53.060Z,70.50
2017-10-25T15:44:20.580Z,70.70
2017-10-25T15:46:48.109Z,70.80
2017-10-25T15:49:16.415Z,71.70
2017-10-25T15:51:43.949Z,71.40
2017-10-25T15:54:12.236Z,71.40
2017-10-25T15:56:39.803Z,71.10
2017-10-25T15:59:07.326Z,71.30
2017-10-25T16:01:35.611Z,72.20
2017-10-25T16:04:03.155Z,71.90
2017-10-25T16:06:30.689Z,72.20
2017-10-25T16:08:58.979Z,72.70
2017-10-25T16:11:26.529Z,72.50
2017-10-25T16:13:54.044Z,72.70
2017-10-25T16:16:21.579Z,72.90
2017-10-25T16:18:49.903Z,73.40
2017-10-25T16:21:17.452Z,73.00
2017-10-25T16:23:45.206Z,73.40
2017-10-25T16:26:12.751Z,73.60
2017-10-25T16:28:40.313Z,73.60
2017-10-25T16:31:08.605Z,74.20
2017-10-25T16:33:36.148Z,73.90
2017-10-25T16:36:03.705Z,74.30
2017-10-25T16:38:31.227Z,74.10
2017-10-25T16:40:58.782Z,74.20
2017-10-25T16:43:26.305Z,74.40
2017-10-25T16:45:54.596Z,74.80
2017-10-25T16:48:22.137Z,74.50
2017-10-25T16:50:49.659Z,74.80
2017-10-25T16:53:17.957Z,75.20
2017-10-25T16:55:45.509Z,74.90
2017-10-25T16:58:13.035Z,75.40
2017-10-25T17:00:41.133Z,75.40
2017-10-25T17:03:08.688Z,75.30
2017-10-25T17:05:38.974Z,75.50
2017-10-25T17:08:06.508Z,75.80
2017-10-25T17:10:34.087Z,75.90
2017-10-25T17:13:01.617Z,75.80
2017-10-25T17:15:29.928Z,76.50
2017-10-25T17:17:57.532Z,76.00
2017-10-25T17:20:25.086Z,76.20
2017-10-25T17:22:53.019Z,76.00
2017-10-25T17:25:20.568Z,76.00
2017-10-25T17:27:48.112Z,76.10
2017-10-25T17:30:15.785Z,76.20
2017-10-25T17:32:43.359Z,76.10
2017-10-25T17:35:10.907Z,76.10
2017-10-25T17:37:38.457Z,76.30
2017-10-25T17:40:06.047Z,76.40
2017-10-25T17:42:33.822Z,76.50
2017-10-25T17:45:01.383Z,76.80
2017-10-25T17:47:29.708Z,76.50
2017-10-25T17:49:57.241Z,76.50
2017-10-25T17:52:24.774Z,76.60
2017-10-25T17:54:52.316Z,76.80
2017-10-25T17:57:19.846Z,76.60
2017-10-25T17:59:47.369Z,76.80
2017-10-25T18:02:15.687Z,77.20
2017-10-25T18:04:43.215Z,76.80
2017-10-25T18:07:10.746Z,77.00
2017-10-25T18:09:38.375Z,77.20
2017-10-25T18:12:06.158Z,77.10
2017-10-25T18:14:33.857Z,77.50
2017-10-25T18:17:02.265Z,78.60
2017-10-25T18:19:32.230Z,78.40
2017-10-25T18:22:00.581Z,79.00
2017-10-25T18:24:28.982Z,78.80
2017-10-25T18:26:56.724Z,78.20
2017-10-25T18:29:24.422Z,78.40
2017-10-25T18:31:51.990Z,78.20
2017-10-25T18:34:20.300Z,78.80
2017-10-25T18:36:47.835Z,78.70
2017-10-25T18:39:15.402Z,78.40
2017-10-25T18:41:42.939Z,78.50
2017-10-25T18:44:10.791Z,78.60
2017-10-25T18:46:38.384Z,78.60
2017-10-25T18:49:05.919Z,79.20
2017-10-25T18:51:33.451Z,78.60
2017-10-25T18:54:00.995Z,78.70
2017-10-25T18:56:28.528Z,79.10
2017-10-25T18:58:56.895Z,80.20
2017-10-25T19:01:24.457Z,79.20
2017-10-25T19:03:51.978Z,79.80
2017-10-25T19:06:20.335Z,81.20
2017-10-25T19:08:47.892Z,79.80
2017-10-25T19:11:16.199Z,80.30
2017-10-25T19:13:43.748Z,79.50
2017-10-25T19:16:11.301Z,80.50
2017-10-25T19:18:38.837Z,80.70
2017-10-25T19:21:06.368Z,80.30
2017-10-25T19:23:33.976Z,80.50
2017-10-25T19:26:01.583Z,81.10
2017-10-25T19:28:29.137Z,81.30
2017-10-25T19:30:56.679Z,81.40
2017-10-25T19:33:24.238Z,80.50
2017-10-25T19:35:51.802Z,80.30
2017-10-25T19:38:20.120Z,80.50
2017-10-25T19:40:47.680Z,79.70
2017-10-25T19:43:15.299Z,80.30
2017-10-25T19:45:42.918Z,80.30
2017-10-25T19:48:11.789Z,80.50
2017-10-25T19:50:39.568Z,80.60
2017-10-25T19:53:07.215Z,81.00
2017-10-25T19:55:34.869Z,80.90
2017-10-25T19:58:02.405Z,80.10
2017-10-25T20:00:29.984Z,80.30
2017-10-25T20:02:58.280Z,80.50
2017-10-25T20:05:25.804Z,80.70
2017-10-25T20:07:53.363Z,81.10
2017-10-25T20:10:20.892Z,81.00
2017-10-25T20:12:48.510Z,81.20
2017-10-25T20:15:16.070Z,81.70
2017-10-25T20:17:43.730Z,81.80
2017-10-25T20:20:11.332Z,81.90
2017-10-25T20:22:39.968Z,81.90
2017-10-25T20:25:07.510Z,81.80
2017-10-25T20:27:36.060Z,82.50
2017-10-25T20:30:03.798Z,81.80
2017-10-25T20:32:31.378Z,82.00
2017-10-25T20:34:59.910Z,82.50
2017-10-25T20:37:27.714Z,81.60
2017-10-25T20:39:56.049Z,82.50
2017-10-25T20:42:26.969Z,81.80
2017-10-25T20:44:54.597Z,81.10
2017-10-25T20:47:22.140Z,81.60
2017-10-25T20:49:49.785Z,81.10
2017-10-25T20:52:17.344Z,81.60
2017-10-25T20:54:44.885Z,81.30
2017-10-25T20:57:19.341Z,81.60
2017-10-25T20:59:46.877Z,82.20
2017-10-25T21:02:15.170Z,81.60
2017-10-25T21:04:42.723Z,80.80
2017-10-25T21:07:10.640Z,81.00
2017-10-25T21:09:38.933Z,81.80
2017-10-25T21:12:06.489Z,81.10
2017-10-25T21:14:34.017Z,81.40
2017-10-25T21:17:01.545Z,80.90
2017-10-25T21:19:29.096Z,81.10
2017-10-25T21:21:56.624Z,81.40
2017-10-25T21:24:25.273Z,82.50
2017-10-25T21:26:53.605Z,82.20
2017-10-25T21:29:21.393Z,81.40
2017-10-25T21:31:49.731Z,82.20
2017-10-25T21:34:17.284Z,81.30
2017-10-25T21:36:44.817Z,81.70
2017-10-25T21:39:12.365Z,82.20
2017-10-25T21:41:39.929Z,81.70
2017-10-25T21:44:07.448Z,81.90
2017-10-25T21:46:34.973Z,81.90
2017-10-25T21:49:02.536Z,82.30
2017-10-25T21:51:30.061Z,82.30
2017-10-25T21:53:57.601Z,82.40
2017-10-25T21:56:25.149Z,83.10
2017-10-25T21:58:53.177Z,82.50
2017-10-25T22:01:20.727Z,82.40
2017-10-25T22:03:48.290Z,82.90
2017-10-25T22:06:15.902Z,82.90
2017-10-25T22:08:44.286Z,83.20
2017-10-25T22:11:12.170Z,82.30
2017-10-25T22:13:39.764Z,82.70
2017-10-25T22:16:07.676Z,82.90
2017-10-25T22:18:35.240Z,82.40
2017-10-25T22:21:02.780Z,82.10
2017-10-25T22:23:30.430Z,82.40
2017-10-25T22:25:58.773Z,83.50
2017-10-25T22:28:26.313Z,82.60
2017-10-25T22:30:53.854Z,82.30
2017-10-25T22:33:21.404Z,81.90
2017-10-25T22:35:48.936Z,82.20
2017-10-25T22:38:17.486Z,83.60
2017-10-25T22:40:45.081Z,82.70
2017-10-25T22:43:12.626Z,82.70
2017-10-25T22:45:40.147Z,82.80
2017-10-25T22:48:07.695Z,83.30
2017-10-25T22:50:35.466Z,82.50
2017-10-25T22:53:03.000Z,82.60
2017-10-25T22:55:30.546Z,83.30
2017-10-25T22:57:58.077Z,83.40
2017-10-25T23:00:25.605Z,83.40
2017-10-25T23:02:53.179Z,83.40
2017-10-25T23:05:20.712Z,83.50
2017-10-25T23:07:48.249Z,83.00
2017-10-25T23:10:15.808Z,83.30
2017-10-25T23:12:43.337Z,83.10
2017-10-25T23:15:10.869Z,83.80
2017-10-25T23:17:38.434Z,83.40
2017-10-25T23:20:05.964Z,83.30
2017-10-25T23:22:33.481Z,84.00
2017-10-25T23:25:01.046Z,83.50
2017-10-25T23:27:28.581Z,83.80
2017-10-25T23:29:56.111Z,82.90
2017-10-25T23:32:23.661Z,83.30
2017-10-25T23:34:51.609Z,83.10
2017-10-25T23:37:19.148Z,83.10
2017-10-25T23:39:46.700Z,82.60
2017-10-25T23:42:14.247Z,83.70
2017-10-25T23:44:41.777Z,83.50
2017-10-25T23:47:10.456Z,84.00
2017-10-25T23:49:38.756Z,83.70
2017-10-25T23:52:06.295Z,82.10
2017-10-25T23:54:33.851Z,82.60
2017-10-25T23:57:01.381Z,82.30
2017-10-25T23:59:29.295Z,82.40
